Stotfold, United Kingdom
Current Conditions -  °F | °C
As of 1:50 AM on Saturday 25 Oct 2014 (Local Time) from EGGW Reporting Station
Clear Clear  
Wind Chill: 44°   Ceiling: Unl
Heat Index: 46°   Visibility: 6mi
Dew Point: 46°   Wind: 6mph
Humidity: 100%   Direction: 240°WSW
Pressure: 30"   Gusts: NA
Location:  52.02°N, 0.23°W
Report Text: EGGW 250050Z 24005KT CAVOK 08/08 Q1016
Loading
Personal Weather Stations






























Interactive Weather Map
Tropical Storm Tracking
New forecast layout! Learn more

10-Day Weather Forecast

Advertisements
Track Severe Weather on mobile